EIN66V EIDW-LOWW
Flight info
| Callsign | EIN66V |
|---|---|
| Flight time | 2h 8m |
| Altitude | 35000 |
| Route | ENDEQ1E ENDEQ Q36 ALAVA Z195 MALUD UL975 WAL M16 DOLAS DCT NAVPI DCT BADGO DCT SWALM DCT GASKA DCT ENITA DCT ETVIS DCT BUDEX BUDEX2W |
| Aircraft | A320/M-SDE3FGHIRWY/LB1 |
Departure
| Time | 2026-04-21 07:08 |
|---|---|
| Airport | Dublin Airport (EIDW) |
Arrival
| Time | 2026-04-21 09:16 |
|---|---|
| Airport | Vienna International Airport (LOWW) |
| Time | Latitude | Longitude | Altitude | Speed | Heading |
|---|---|---|---|---|---|
| 2026-04-21 06:52 | 53.42321 | -6.24258 | 217 ft | 0 kts | 316° |
| 2026-04-21 06:56 | 53.42315 | -6.24248 | 211 ft | 4 kts | 313° |
| 2026-04-21 06:56 | 53.42299 | -6.24213 | 213 ft | 4 kts | 297° |
| 2026-04-21 06:57 | 53.42290 | -6.24172 | 214 ft | 4 kts | 275° |
| 2026-04-21 06:57 | 53.42293 | -6.24130 | 211 ft | 4 kts | 233° |
| 2026-04-21 06:57 | 53.42310 | -6.24103 | 211 ft | 4 kts | 220° |
| 2026-04-21 06:57 | 53.42330 | -6.24075 | 211 ft | 4 kts | 213° |
| 2026-04-21 06:58 | 53.42337 | -6.24067 | 211 ft | 0 kts | 211° |
| 2026-04-21 07:00 | 53.42337 | -6.24068 | 211 ft | 0 kts | 211° |
| 2026-04-21 07:00 | 53.42298 | -6.24105 | 211 ft | 11 kts | 204° |
| 2026-04-21 07:00 | 53.42234 | -6.24145 | 214 ft | 9 kts | 209° |
| 2026-04-21 07:00 | 53.42190 | -6.24204 | 215 ft | 7 kts | 221° |
| 2026-04-21 07:01 | 53.42158 | -6.24303 | 213 ft | 15 kts | 266° |
| 2026-04-21 07:01 | 53.42167 | -6.24476 | 213 ft | 14 kts | 275° |
| 2026-04-21 07:01 | 53.42184 | -6.24769 | 211 ft | 11 kts | 275° |
| 2026-04-21 07:02 | 53.42192 | -6.24937 | 211 ft | 16 kts | 274° |
| 2026-04-21 07:02 | 53.42201 | -6.25116 | 211 ft | 16 kts | 275° |
| 2026-04-21 07:02 | 53.42214 | -6.25343 | 211 ft | 23 kts | 275° |
| 2026-04-21 07:02 | 53.42228 | -6.25603 | 211 ft | 21 kts | 275° |
| 2026-04-21 07:03 | 53.42242 | -6.25838 | 211 ft | 19 kts | 275° |
| 2026-04-21 07:03 | 53.42253 | -6.26047 | 211 ft | 17 kts | 276° |
| 2026-04-21 07:03 | 53.42263 | -6.26238 | 211 ft | 16 kts | 275° |
| 2026-04-21 07:03 | 53.42273 | -6.26408 | 213 ft | 14 kts | 275° |
| 2026-04-21 07:04 | 53.42283 | -6.26588 | 213 ft | 18 kts | 275° |
| 2026-04-21 07:04 | 53.42296 | -6.26822 | 211 ft | 20 kts | 275° |
| 2026-04-21 07:04 | 53.42308 | -6.27048 | 219 ft | 19 kts | 275° |
| 2026-04-21 07:04 | 53.42319 | -6.27253 | 211 ft | 17 kts | 275° |
| 2026-04-21 07:05 | 53.42329 | -6.27438 | 211 ft | 15 kts | 276° |
| 2026-04-21 07:05 | 53.42339 | -6.27611 | 213 ft | 17 kts | 275° |
| 2026-04-21 07:05 | 53.42353 | -6.27865 | 215 ft | 25 kts | 275° |
| 2026-04-21 07:05 | 53.42367 | -6.28141 | 214 ft | 23 kts | 275° |
| 2026-04-21 07:06 | 53.42383 | -6.28390 | 211 ft | 20 kts | 275° |
| 2026-04-21 07:06 | 53.42394 | -6.28616 | 211 ft | 19 kts | 275° |
| 2026-04-21 07:06 | 53.42406 | -6.28821 | 211 ft | 17 kts | 276° |
| 2026-04-21 07:06 | 53.42405 | -6.29004 | 215 ft | 15 kts | 250° |
| 2026-04-21 07:07 | 53.42326 | -6.29077 | 210 ft | 13 kts | 176° |
| 2026-04-21 07:07 | 53.42261 | -6.29061 | 209 ft | 8 kts | 162° |
| 2026-04-21 07:07 | 53.42238 | -6.28933 | 209 ft | 26 kts | 95° |
| 2026-04-21 07:07 | 53.42199 | -6.28227 | 212 ft | 94 kts | 95° |
| 2026-04-21 07:08 | 53.42121 | -6.26804 | 221 ft | 147 kts | 96° |
| 2026-04-21 07:08 | 53.42015 | -6.25101 | 825 ft | 147 kts | 97° |
| 2026-04-21 07:08 | 53.41912 | -6.23383 | 1519 ft | 150 kts | 97° |
| 2026-04-21 07:08 | 53.41796 | -6.21556 | 1897 ft | 166 kts | 97° |
| 2026-04-21 07:09 | 53.41667 | -6.19572 | 2335 ft | 177 kts | 96° |
| 2026-04-21 07:09 | 53.41560 | -6.17456 | 2800 ft | 189 kts | 95° |
| 2026-04-21 07:09 | 53.41485 | -6.15974 | 3121 ft | 198 kts | 95° |
| 2026-04-21 07:09 | 53.41362 | -6.13577 | 3611 ft | 215 kts | 95° |
| 2026-04-21 07:10 | 53.41227 | -6.10984 | 4083 ft | 232 kts | 93° |
| 2026-04-21 07:10 | 53.41336 | -6.07303 | 5030 ft | 242 kts | 85° |
| 2026-04-21 07:10 | 53.41498 | -6.04481 | 5878 ft | 244 kts | 84° |
| 2026-04-21 07:10 | 53.41675 | -6.01624 | 6690 ft | 248 kts | 84° |
| 2026-04-21 07:11 | 53.41852 | -5.98723 | 7424 ft | 253 kts | 84° |
| 2026-04-21 07:11 | 53.41969 | -5.96765 | 7940 ft | 255 kts | 84° |
| 2026-04-21 07:11 | 53.42144 | -5.93790 | 8748 ft | 257 kts | 84° |
| 2026-04-21 07:11 | 53.42319 | -5.90776 | 9500 ft | 262 kts | 85° |
| 2026-04-21 07:12 | 53.42495 | -5.87713 | 10253 ft | 267 kts | 85° |
| 2026-04-21 07:12 | 53.42674 | -5.84567 | 10730 ft | 280 kts | 85° |
| 2026-04-21 07:12 | 53.42865 | -5.81184 | 10908 ft | 303 kts | 85° |
| 2026-04-21 07:12 | 53.43134 | -5.76379 | 11462 ft | 319 kts | 85° |
| 2026-04-21 07:13 | 53.43275 | -5.73867 | 11926 ft | 322 kts | 85° |
| 2026-04-21 07:13 | 53.43484 | -5.70123 | 12641 ft | 324 kts | 85° |
| 2026-04-21 07:13 | 53.43693 | -5.66319 | 13220 ft | 331 kts | 85° |
| 2026-04-21 07:13 | 53.43900 | -5.62495 | 13829 ft | 336 kts | 85° |
| 2026-04-21 07:14 | 53.44112 | -5.58574 | 14454 ft | 340 kts | 86° |
| 2026-04-21 07:14 | 53.44325 | -5.54586 | 14951 ft | 346 kts | 85° |
| 2026-04-21 07:14 | 53.44531 | -5.50540 | 15475 ft | 351 kts | 88° |
| 2026-04-21 07:14 | 53.44500 | -5.46386 | 15743 ft | 364 kts | 92° |
| 2026-04-21 07:15 | 53.44398 | -5.42064 | 16036 ft | 375 kts | 92° |
| 2026-04-21 07:15 | 53.44285 | -5.37661 | 16511 ft | 381 kts | 92° |
| 2026-04-21 07:15 | 53.44164 | -5.33188 | 16994 ft | 386 kts | 92° |
| 2026-04-21 07:15 | 53.44040 | -5.28664 | 17497 ft | 391 kts | 92° |
| 2026-04-21 07:16 | 53.43916 | -5.24140 | 17968 ft | 396 kts | 92° |
| 2026-04-21 07:16 | 53.43796 | -5.19482 | 18430 ft | 402 kts | 91° |
| 2026-04-21 07:16 | 53.43676 | -5.14775 | 18935 ft | 405 kts | 92° |
| 2026-04-21 07:16 | 53.43543 | -5.10038 | 19384 ft | 409 kts | 92° |
| 2026-04-21 07:17 | 53.43398 | -5.05237 | 19782 ft | 415 kts | 92° |
| 2026-04-21 07:17 | 53.43243 | -5.00388 | 20228 ft | 418 kts | 92° |
| 2026-04-21 07:17 | 53.43079 | -4.95481 | 20584 ft | 424 kts | 92° |
| 2026-04-21 07:17 | 53.42909 | -4.90521 | 21002 ft | 428 kts | 92° |
| 2026-04-21 07:18 | 53.42741 | -4.85598 | 21442 ft | 431 kts | 92° |
| 2026-04-21 07:18 | 53.42572 | -4.80553 | 21807 ft | 435 kts | 92° |
| 2026-04-21 07:18 | 53.42405 | -4.75472 | 22228 ft | 438 kts | 92° |
| 2026-04-21 07:18 | 53.42236 | -4.70360 | 22623 ft | 441 kts | 92° |
| 2026-04-21 07:19 | 53.42063 | -4.65201 | 23001 ft | 445 kts | 92° |
| 2026-04-21 07:19 | 53.41884 | -4.60013 | 23412 ft | 447 kts | 92° |
| 2026-04-21 07:19 | 53.41699 | -4.54807 | 23810 ft | 449 kts | 92° |
| 2026-04-21 07:19 | 53.41511 | -4.49558 | 24122 ft | 452 kts | 92° |
| 2026-04-21 07:20 | 53.41319 | -4.44278 | 24412 ft | 455 kts | 92° |
| 2026-04-21 07:20 | 53.41127 | -4.39034 | 24708 ft | 458 kts | 92° |
| 2026-04-21 07:20 | 53.40930 | -4.33696 | 24997 ft | 460 kts | 92° |
| 2026-04-21 07:20 | 53.40727 | -4.28328 | 25290 ft | 463 kts | 92° |
| 2026-04-21 07:21 | 53.40523 | -4.22929 | 25569 ft | 465 kts | 92° |
| 2026-04-21 07:21 | 53.40317 | -4.17506 | 25845 ft | 468 kts | 92° |
| 2026-04-21 07:21 | 53.40109 | -4.12054 | 26115 ft | 470 kts | 93° |
| 2026-04-21 07:21 | 53.39896 | -4.06584 | 26418 ft | 471 kts | 92° |
| 2026-04-21 07:22 | 53.39680 | -4.01094 | 26696 ft | 473 kts | 92° |
| 2026-04-21 07:22 | 53.39614 | -3.95581 | 26949 ft | 474 kts | 85° |
| 2026-04-21 07:22 | 53.39885 | -3.90074 | 27191 ft | 476 kts | 83° |
| 2026-04-21 07:22 | 53.40172 | -3.84613 | 27427 ft | 478 kts | 83° |
| 2026-04-21 07:23 | 53.40459 | -3.79050 | 27662 ft | 480 kts | 83° |
| 2026-04-21 07:23 | 53.40739 | -3.73460 | 27890 ft | 482 kts | 83° |
| 2026-04-21 07:23 | 53.41013 | -3.67845 | 28117 ft | 484 kts | 84° |
| 2026-04-21 07:23 | 53.41260 | -3.62205 | 28329 ft | 487 kts | 86° |
| 2026-04-21 07:24 | 53.41166 | -3.56520 | 28561 ft | 489 kts | 93° |
| 2026-04-21 07:24 | 53.40906 | -3.50823 | 28785 ft | 491 kts | 93° |
| 2026-04-21 07:24 | 53.40648 | -3.45114 | 28998 ft | 493 kts | 93° |
| 2026-04-21 07:24 | 53.40389 | -3.39382 | 29238 ft | 493 kts | 93° |
| 2026-04-21 07:25 | 53.40133 | -3.33735 | 29500 ft | 493 kts | 93° |
| 2026-04-21 07:25 | 53.39872 | -3.28007 | 29763 ft | 493 kts | 93° |
| 2026-04-21 07:25 | 53.39608 | -3.22277 | 30028 ft | 494 kts | 93° |
| 2026-04-21 07:25 | 53.39339 | -3.16541 | 30291 ft | 494 kts | 93° |
| 2026-04-21 07:26 | 53.39073 | -3.10804 | 30545 ft | 494 kts | 93° |
| 2026-04-21 07:26 | 53.38835 | -3.05060 | 30826 ft | 492 kts | 92° |
| 2026-04-21 07:26 | 53.38627 | -2.99356 | 31163 ft | 489 kts | 92° |
| 2026-04-21 07:26 | 53.38431 | -2.93683 | 31452 ft | 487 kts | 92° |
| 2026-04-21 07:27 | 53.38235 | -2.88021 | 31715 ft | 486 kts | 92° |
| 2026-04-21 07:27 | 53.38032 | -2.82379 | 31969 ft | 486 kts | 92° |
| 2026-04-21 07:27 | 53.37822 | -2.76815 | 32195 ft | 485 kts | 92° |
| 2026-04-21 07:27 | 53.37600 | -2.71187 | 32444 ft | 484 kts | 92° |
| 2026-04-21 07:28 | 53.37369 | -2.65561 | 32701 ft | 484 kts | 92° |
| 2026-04-21 07:28 | 53.37135 | -2.59948 | 32944 ft | 483 kts | 92° |
| 2026-04-21 07:28 | 53.36901 | -2.54350 | 33224 ft | 481 kts | 92° |
| 2026-04-21 07:28 | 53.36668 | -2.48776 | 33560 ft | 478 kts | 92° |
| 2026-04-21 07:29 | 53.36437 | -2.43231 | 33833 ft | 477 kts | 92° |
| 2026-04-21 07:29 | 53.36204 | -2.37696 | 34084 ft | 476 kts | 92° |
| 2026-04-21 07:29 | 53.35972 | -2.32239 | 34326 ft | 476 kts | 93° |
| 2026-04-21 07:29 | 53.35719 | -2.26720 | 34535 ft | 476 kts | 95° |
| 2026-04-21 07:30 | 53.35205 | -2.21247 | 34731 ft | 476 kts | 99° |
| 2026-04-21 07:30 | 53.34643 | -2.15793 | 34931 ft | 475 kts | 99° |
| 2026-04-21 07:30 | 53.34082 | -2.10345 | 35132 ft | 475 kts | 99° |
| 2026-04-21 07:30 | 53.33522 | -2.04907 | 35331 ft | 474 kts | 98° |
| 2026-04-21 07:31 | 53.32400 | -1.94052 | 35426 ft | 473 kts | 99° |
| 2026-04-21 07:31 | 53.31268 | -1.83302 | 35415 ft | 472 kts | 99° |
| 2026-04-21 07:32 | 53.30122 | -1.72483 | 35414 ft | 472 kts | 99° |
| 2026-04-21 07:32 | 53.28980 | -1.61672 | 35418 ft | 472 kts | 99° |
| 2026-04-21 07:33 | 53.27821 | -1.50871 | 35427 ft | 472 kts | 99° |
| 2026-04-21 07:33 | 53.26648 | -1.40082 | 35438 ft | 471 kts | 99° |
| 2026-04-21 07:34 | 53.25478 | -1.29394 | 35441 ft | 471 kts | 99° |
| 2026-04-21 07:34 | 53.24293 | -1.18648 | 35413 ft | 471 kts | 99° |
| 2026-04-21 07:35 | 53.23089 | -1.07890 | 35402 ft | 472 kts | 99° |
| 2026-04-21 07:35 | 53.21879 | -0.97113 | 35415 ft | 472 kts | 99° |
| 2026-04-21 07:36 | 53.20667 | -0.86419 | 35419 ft | 472 kts | 99° |
| 2026-04-21 07:36 | 53.19441 | -0.75666 | 35420 ft | 472 kts | 99° |
| 2026-04-21 07:37 | 53.18201 | -0.64923 | 35422 ft | 472 kts | 99° |
| 2026-04-21 07:37 | 53.16956 | -0.54183 | 35420 ft | 472 kts | 99° |
| 2026-04-21 07:38 | 53.15715 | -0.43530 | 35415 ft | 472 kts | 100° |
| 2026-04-21 07:38 | 53.14443 | -0.32813 | 35391 ft | 472 kts | 100° |
| 2026-04-21 07:39 | 53.13164 | -0.22097 | 35389 ft | 472 kts | 100° |
| 2026-04-21 07:39 | 53.11883 | -0.11390 | 35391 ft | 472 kts | 100° |
| 2026-04-21 07:40 | 53.10588 | -0.00684 | 35401 ft | 472 kts | 100° |
| 2026-04-21 07:40 | 53.09285 | 0.09936 | 35404 ft | 472 kts | 100° |
| 2026-04-21 07:41 | 53.07966 | 0.20627 | 35405 ft | 472 kts | 100° |
| 2026-04-21 07:41 | 53.06646 | 0.31310 | 35397 ft | 472 kts | 101° |
| 2026-04-21 07:42 | 53.05314 | 0.41981 | 35388 ft | 471 kts | 100° |
| 2026-04-21 07:42 | 53.03978 | 0.52568 | 35401 ft | 471 kts | 99° |
| 2026-04-21 07:43 | 53.02618 | 0.63231 | 35395 ft | 472 kts | 101° |
| 2026-04-21 07:43 | 53.01251 | 0.73891 | 35396 ft | 472 kts | 100° |
| 2026-04-21 07:44 | 52.99885 | 0.84545 | 35388 ft | 472 kts | 100° |
| 2026-04-21 07:44 | 52.98510 | 0.95131 | 35379 ft | 472 kts | 101° |
| 2026-04-21 07:45 | 52.96631 | 1.05568 | 35397 ft | 474 kts | 109° |
| 2026-04-21 07:45 | 52.94310 | 1.15791 | 35394 ft | 473 kts | 109° |
| 2026-04-21 07:46 | 52.92000 | 1.26009 | 35383 ft | 474 kts | 109° |
| 2026-04-21 07:46 | 52.89700 | 1.36151 | 35396 ft | 473 kts | 109° |
| 2026-04-21 07:47 | 52.87366 | 1.46343 | 35381 ft | 473 kts | 110° |
| 2026-04-21 07:47 | 52.85022 | 1.56509 | 35397 ft | 472 kts | 110° |
| 2026-04-21 07:48 | 52.82674 | 1.66657 | 35385 ft | 472 kts | 109° |
| 2026-04-21 07:48 | 52.80325 | 1.76781 | 35381 ft | 472 kts | 109° |
| 2026-04-21 07:49 | 52.77984 | 1.86828 | 35376 ft | 471 kts | 110° |
| 2026-04-21 07:49 | 52.75616 | 1.96925 | 35373 ft | 472 kts | 109° |
| 2026-04-21 07:50 | 52.73236 | 2.07022 | 35377 ft | 472 kts | 110° |
| 2026-04-21 07:50 | 52.70848 | 2.17105 | 35369 ft | 472 kts | 110° |
| 2026-04-21 07:51 | 52.68467 | 2.27117 | 35371 ft | 472 kts | 109° |
| 2026-04-21 07:51 | 52.66055 | 2.37187 | 35366 ft | 473 kts | 110° |
| 2026-04-21 07:52 | 52.63639 | 2.47249 | 35365 ft | 473 kts | 110° |
| 2026-04-21 07:52 | 52.61214 | 2.57311 | 35372 ft | 473 kts | 110° |
| 2026-04-21 07:53 | 52.58789 | 2.67347 | 35372 ft | 472 kts | 110° |
| 2026-04-21 07:53 | 52.56365 | 2.77308 | 35367 ft | 472 kts | 110° |
| 2026-04-21 07:54 | 52.53921 | 2.87312 | 35367 ft | 472 kts | 109° |
| 2026-04-21 07:54 | 52.51515 | 2.97348 | 35359 ft | 472 kts | 110° |
| 2026-04-21 07:55 | 52.49144 | 3.07295 | 35362 ft | 471 kts | 109° |
| 2026-04-21 07:55 | 52.46744 | 3.17296 | 35357 ft | 471 kts | 110° |
| 2026-04-21 07:56 | 52.44321 | 3.27283 | 35337 ft | 472 kts | 110° |
| 2026-04-21 07:56 | 52.41889 | 3.37264 | 35332 ft | 472 kts | 110° |
| 2026-04-21 07:57 | 52.39448 | 3.47247 | 35336 ft | 472 kts | 110° |
| 2026-04-21 07:57 | 52.37017 | 3.57155 | 35359 ft | 472 kts | 110° |
| 2026-04-21 07:58 | 52.34560 | 3.67115 | 35353 ft | 472 kts | 110° |
| 2026-04-21 07:58 | 52.32097 | 3.77054 | 35358 ft | 472 kts | 110° |
| 2026-04-21 07:59 | 52.29627 | 3.86980 | 35348 ft | 471 kts | 110° |
| 2026-04-21 07:59 | 52.27172 | 3.96814 | 35356 ft | 471 kts | 110° |
| 2026-04-21 08:00 | 52.24684 | 4.06684 | 35364 ft | 469 kts | 111° |
| 2026-04-21 08:00 | 52.22205 | 4.16519 | 35359 ft | 468 kts | 110° |
| 2026-04-21 08:01 | 52.19724 | 4.26331 | 35345 ft | 468 kts | 111° |
| 2026-04-21 08:02 | 52.15995 | 4.40960 | 35330 ft | 469 kts | 111° |
| 2026-04-21 08:02 | 52.13484 | 4.50751 | 35325 ft | 469 kts | 111° |
| 2026-04-21 08:03 | 52.10959 | 4.60534 | 35321 ft | 469 kts | 111° |
| 2026-04-21 08:03 | 52.08437 | 4.70313 | 35327 ft | 469 kts | 111° |
| 2026-04-21 08:04 | 52.05923 | 4.80019 | 35325 ft | 469 kts | 111° |
| 2026-04-21 08:04 | 52.03378 | 4.89776 | 35341 ft | 469 kts | 111° |
| 2026-04-21 08:05 | 52.00827 | 4.99512 | 35342 ft | 468 kts | 112° |
| 2026-04-21 08:05 | 51.98274 | 5.09223 | 35337 ft | 468 kts | 112° |
| 2026-04-21 08:06 | 51.95719 | 5.18923 | 35334 ft | 467 kts | 111° |
| 2026-04-21 08:06 | 51.93174 | 5.28536 | 35331 ft | 467 kts | 112° |
| 2026-04-21 08:07 | 51.90594 | 5.38211 | 35322 ft | 468 kts | 112° |
| 2026-04-21 08:07 | 51.88006 | 5.47882 | 35326 ft | 468 kts | 112° |
| 2026-04-21 08:08 | 51.85412 | 5.57543 | 35325 ft | 468 kts | 112° |
| 2026-04-21 08:08 | 51.82825 | 5.67128 | 35314 ft | 468 kts | 112° |
| 2026-04-21 08:09 | 51.80218 | 5.76762 | 35306 ft | 468 kts | 112° |
| 2026-04-21 08:09 | 51.77603 | 5.86389 | 35320 ft | 468 kts | 112° |
| 2026-04-21 08:10 | 51.74975 | 5.95985 | 35323 ft | 467 kts | 112° |
| 2026-04-21 08:10 | 51.72368 | 6.05504 | 35320 ft | 467 kts | 112° |
| 2026-04-21 08:11 | 51.69740 | 6.15061 | 35313 ft | 466 kts | 112° |
| 2026-04-21 08:11 | 51.67103 | 6.24606 | 35318 ft | 466 kts | 112° |
| 2026-04-21 08:12 | 51.64463 | 6.34141 | 35328 ft | 466 kts | 112° |
| 2026-04-21 08:12 | 51.61808 | 6.43655 | 35308 ft | 466 kts | 113° |
| 2026-04-21 08:13 | 51.59153 | 6.53113 | 35294 ft | 468 kts | 113° |
| 2026-04-21 08:13 | 51.56477 | 6.62654 | 35289 ft | 468 kts | 113° |
| 2026-04-21 08:14 | 51.53792 | 6.72194 | 35296 ft | 469 kts | 113° |
| 2026-04-21 08:14 | 51.51097 | 6.81720 | 35309 ft | 468 kts | 113° |
| 2026-04-21 08:15 | 51.48394 | 6.91221 | 35311 ft | 467 kts | 113° |
| 2026-04-21 08:15 | 51.45704 | 7.00627 | 35309 ft | 467 kts | 113° |
| 2026-04-21 08:16 | 51.42991 | 7.10075 | 35305 ft | 466 kts | 113° |
| 2026-04-21 08:16 | 51.40279 | 7.19506 | 35301 ft | 466 kts | 113° |
| 2026-04-21 08:17 | 51.37563 | 7.28922 | 35302 ft | 465 kts | 113° |
| 2026-04-21 08:17 | 51.34860 | 7.38243 | 35296 ft | 465 kts | 113° |
| 2026-04-21 08:18 | 51.32127 | 7.47615 | 35279 ft | 465 kts | 114° |
| 2026-04-21 08:18 | 51.29380 | 7.56992 | 35264 ft | 466 kts | 114° |
| 2026-04-21 08:19 | 51.26624 | 7.66384 | 35266 ft | 467 kts | 114° |
| 2026-04-21 08:19 | 51.23881 | 7.75707 | 35270 ft | 467 kts | 114° |
| 2026-04-21 08:20 | 51.21113 | 7.85082 | 35267 ft | 467 kts | 114° |
| 2026-04-21 08:20 | 51.18331 | 7.94441 | 35267 ft | 467 kts | 114° |
| 2026-04-21 08:21 | 51.15541 | 8.03790 | 35256 ft | 467 kts | 114° |
| 2026-04-21 08:21 | 51.12744 | 8.13132 | 35273 ft | 467 kts | 114° |
| 2026-04-21 08:22 | 51.09960 | 8.22393 | 35268 ft | 467 kts | 115° |
| 2026-04-21 08:22 | 51.06644 | 8.31293 | 35266 ft | 468 kts | 120° |
| 2026-04-21 08:23 | 51.03237 | 8.40106 | 35260 ft | 468 kts | 120° |
| 2026-04-21 08:23 | 50.99824 | 8.48939 | 35242 ft | 470 kts | 120° |
| 2026-04-21 08:24 | 50.96424 | 8.57717 | 35258 ft | 470 kts | 120° |
| 2026-04-21 08:24 | 50.92994 | 8.66545 | 35262 ft | 470 kts | 120° |
| 2026-04-21 08:25 | 50.89555 | 8.75360 | 35265 ft | 470 kts | 121° |
| 2026-04-21 08:25 | 50.86101 | 8.84158 | 35266 ft | 470 kts | 121° |
| 2026-04-21 08:26 | 50.82644 | 8.92951 | 35265 ft | 471 kts | 121° |
| 2026-04-21 08:26 | 50.79205 | 9.01676 | 35260 ft | 471 kts | 121° |
| 2026-04-21 08:27 | 50.75738 | 9.10443 | 35262 ft | 471 kts | 121° |
| 2026-04-21 08:27 | 50.72260 | 9.19210 | 35262 ft | 471 kts | 121° |
| 2026-04-21 08:28 | 50.68972 | 9.28134 | 35251 ft | 470 kts | 116° |
| 2026-04-21 08:28 | 50.66000 | 9.37313 | 35262 ft | 470 kts | 115° |
| 2026-04-21 08:29 | 50.63083 | 9.46462 | 35254 ft | 470 kts | 115° |
| 2026-04-21 08:29 | 50.60175 | 9.55685 | 35250 ft | 470 kts | 115° |
| 2026-04-21 08:30 | 50.57288 | 9.64922 | 35251 ft | 470 kts | 115° |
| 2026-04-21 08:30 | 50.54387 | 9.74145 | 35248 ft | 470 kts | 115° |
| 2026-04-21 08:31 | 50.51467 | 9.83352 | 35256 ft | 470 kts | 115° |
| 2026-04-21 08:31 | 50.48558 | 9.92477 | 35250 ft | 470 kts | 115° |
| 2026-04-21 08:32 | 50.45622 | 10.01653 | 35243 ft | 470 kts | 115° |
| 2026-04-21 08:32 | 50.42680 | 10.10819 | 35223 ft | 471 kts | 115° |
| 2026-04-21 08:33 | 50.39726 | 10.20004 | 35212 ft | 472 kts | 116° |
| 2026-04-21 08:33 | 50.36782 | 10.29123 | 35225 ft | 472 kts | 115° |
| 2026-04-21 08:34 | 50.33803 | 10.38296 | 35225 ft | 472 kts | 116° |
| 2026-04-21 08:34 | 50.30818 | 10.47456 | 35221 ft | 473 kts | 116° |
| 2026-04-21 08:35 | 50.27828 | 10.56621 | 35222 ft | 473 kts | 116° |
| 2026-04-21 08:35 | 50.24831 | 10.65770 | 35234 ft | 473 kts | 116° |
| 2026-04-21 08:36 | 50.21842 | 10.74854 | 35224 ft | 473 kts | 116° |
| 2026-04-21 08:36 | 50.18829 | 10.83985 | 35220 ft | 473 kts | 116° |
| 2026-04-21 08:37 | 50.15800 | 10.93100 | 35199 ft | 473 kts | 116° |
| 2026-04-21 08:37 | 50.12767 | 11.02199 | 35198 ft | 473 kts | 116° |
| 2026-04-21 08:38 | 50.09745 | 11.11239 | 35187 ft | 474 kts | 116° |
| 2026-04-21 08:38 | 50.06704 | 11.20338 | 35182 ft | 474 kts | 116° |
| 2026-04-21 08:39 | 50.03644 | 11.29435 | 35175 ft | 475 kts | 117° |
| 2026-04-21 08:39 | 50.00570 | 11.38529 | 35182 ft | 475 kts | 117° |
| 2026-04-21 08:40 | 49.97508 | 11.47556 | 35194 ft | 475 kts | 117° |
| 2026-04-21 08:40 | 49.94427 | 11.56628 | 35193 ft | 474 kts | 117° |
| 2026-04-21 08:41 | 49.91345 | 11.65675 | 35180 ft | 474 kts | 117° |
| 2026-04-21 08:41 | 49.88260 | 11.74718 | 35175 ft | 474 kts | 117° |
| 2026-04-21 08:42 | 49.85164 | 11.83735 | 35168 ft | 474 kts | 117° |
| 2026-04-21 08:42 | 49.82072 | 11.92677 | 35172 ft | 474 kts | 117° |
| 2026-04-21 08:43 | 49.78955 | 12.01662 | 35154 ft | 474 kts | 117° |
| 2026-04-21 08:43 | 49.75836 | 12.10666 | 35149 ft | 475 kts | 117° |
| 2026-04-21 08:44 | 49.72700 | 12.19661 | 35164 ft | 475 kts | 118° |
| 2026-04-21 08:44 | 49.69574 | 12.28590 | 35178 ft | 476 kts | 117° |
| 2026-04-21 08:45 | 49.66422 | 12.37581 | 35174 ft | 476 kts | 118° |
| 2026-04-21 08:45 | 49.63262 | 12.46563 | 35176 ft | 476 kts | 118° |
| 2026-04-21 08:46 | 49.60093 | 12.55536 | 35177 ft | 476 kts | 118° |
| 2026-04-21 08:46 | 49.56931 | 12.64426 | 35176 ft | 476 kts | 118° |
| 2026-04-21 08:47 | 49.53753 | 12.73360 | 35185 ft | 475 kts | 118° |
| 2026-04-21 08:47 | 49.50573 | 12.82282 | 35183 ft | 475 kts | 118° |
| 2026-04-21 08:48 | 49.47382 | 12.91187 | 35183 ft | 475 kts | 118° |
| 2026-04-21 08:48 | 49.44199 | 13.00028 | 35156 ft | 477 kts | 118° |
| 2026-04-21 08:49 | 49.40982 | 13.08947 | 35157 ft | 477 kts | 118° |
| 2026-04-21 08:49 | 49.37760 | 13.17863 | 35161 ft | 478 kts | 118° |
| 2026-04-21 08:50 | 49.34519 | 13.26777 | 35163 ft | 479 kts | 118° |
| 2026-04-21 08:50 | 49.31290 | 13.35632 | 35167 ft | 479 kts | 119° |
| 2026-04-21 08:51 | 49.28028 | 13.44532 | 35179 ft | 479 kts | 119° |
| 2026-04-21 08:51 | 49.24766 | 13.53428 | 35172 ft | 479 kts | 119° |
| 2026-04-21 08:52 | 49.21499 | 13.62306 | 35175 ft | 479 kts | 119° |
| 2026-04-21 08:52 | 49.18219 | 13.71170 | 35176 ft | 479 kts | 119° |
| 2026-04-21 08:53 | 49.14956 | 13.79966 | 35170 ft | 479 kts | 119° |
| 2026-04-21 08:53 | 49.11669 | 13.88818 | 35152 ft | 480 kts | 119° |
| 2026-04-21 08:54 | 49.08366 | 13.97675 | 35149 ft | 481 kts | 119° |
| 2026-04-21 08:54 | 49.05044 | 14.06533 | 35151 ft | 482 kts | 120° |
| 2026-04-21 08:55 | 49.01729 | 14.15335 | 35154 ft | 482 kts | 120° |
| 2026-04-21 08:55 | 48.98390 | 14.24184 | 35170 ft | 482 kts | 120° |
| 2026-04-21 08:56 | 48.95024 | 14.33015 | 35165 ft | 482 kts | 123° |
| 2026-04-21 08:56 | 48.91027 | 14.41188 | 35162 ft | 482 kts | 128° |
| 2026-04-21 08:57 | 48.87173 | 14.49513 | 35156 ft | 482 kts | 123° |
| 2026-04-21 08:57 | 48.85358 | 14.53790 | 34927 ft | 481 kts | 122° |
| 2026-04-21 08:57 | 48.83598 | 14.58027 | 34706 ft | 481 kts | 122° |
| 2026-04-21 08:57 | 48.81823 | 14.62329 | 34477 ft | 481 kts | 122° |
| 2026-04-21 08:58 | 48.80039 | 14.66629 | 34236 ft | 483 kts | 122° |
| 2026-04-21 08:58 | 48.78235 | 14.70937 | 33982 ft | 484 kts | 123° |
| 2026-04-21 08:58 | 48.76420 | 14.75238 | 33708 ft | 484 kts | 123° |
| 2026-04-21 08:58 | 48.74599 | 14.79528 | 33434 ft | 484 kts | 123° |
| 2026-04-21 08:59 | 48.72775 | 14.83808 | 32769 ft | 484 kts | 123° |
| 2026-04-21 08:59 | 48.70930 | 14.88128 | 31524 ft | 491 kts | 123° |
| 2026-04-21 08:59 | 48.69077 | 14.92470 | 30497 ft | 491 kts | 122° |
| 2026-04-21 08:59 | 48.67255 | 14.96736 | 29477 ft | 487 kts | 122° |
| 2026-04-21 09:00 | 48.65411 | 15.01048 | 28106 ft | 489 kts | 122° |
| 2026-04-21 09:00 | 48.63564 | 15.05357 | 27199 ft | 484 kts | 122° |
| 2026-04-21 09:00 | 48.61752 | 15.09586 | 26430 ft | 476 kts | 122° |
| 2026-04-21 09:00 | 48.59962 | 15.13765 | 25653 ft | 470 kts | 122° |
| 2026-04-21 09:01 | 48.58195 | 15.17881 | 24900 ft | 465 kts | 122° |
| 2026-04-21 09:01 | 48.56443 | 15.21952 | 24150 ft | 460 kts | 122° |
| 2026-04-21 09:01 | 48.54708 | 15.25976 | 23372 ft | 456 kts | 122° |
| 2026-04-21 09:01 | 48.53010 | 15.29903 | 22662 ft | 450 kts | 122° |
| 2026-04-21 09:02 | 48.51310 | 15.33828 | 21980 ft | 444 kts | 123° |
| 2026-04-21 09:02 | 48.49629 | 15.37704 | 21346 ft | 439 kts | 123° |
| 2026-04-21 09:02 | 48.47967 | 15.41529 | 20705 ft | 434 kts | 123° |
| 2026-04-21 09:03 | 48.44695 | 15.49052 | 19530 ft | 424 kts | 123° |
| 2026-04-21 09:03 | 48.43087 | 15.52749 | 18962 ft | 420 kts | 123° |
| 2026-04-21 09:03 | 48.41494 | 15.56409 | 18439 ft | 416 kts | 123° |
| 2026-04-21 09:03 | 48.39916 | 15.60027 | 17867 ft | 411 kts | 123° |
| 2026-04-21 09:04 | 48.38354 | 15.63600 | 17353 ft | 406 kts | 122° |
| 2026-04-21 09:04 | 48.36827 | 15.67080 | 16840 ft | 402 kts | 123° |
| 2026-04-21 09:04 | 48.35292 | 15.70570 | 16317 ft | 398 kts | 122° |
| 2026-04-21 09:04 | 48.33769 | 15.74027 | 15785 ft | 395 kts | 122° |
| 2026-04-21 09:05 | 48.32258 | 15.77453 | 15246 ft | 392 kts | 122° |
| 2026-04-21 09:05 | 48.30758 | 15.80853 | 14686 ft | 389 kts | 122° |
| 2026-04-21 09:05 | 48.29267 | 15.84234 | 14125 ft | 387 kts | 122° |
| 2026-04-21 09:05 | 48.27785 | 15.87598 | 13497 ft | 386 kts | 122° |
| 2026-04-21 09:06 | 48.26312 | 15.90937 | 12918 ft | 382 kts | 122° |
| 2026-04-21 09:06 | 48.24850 | 15.94242 | 12314 ft | 378 kts | 122° |
| 2026-04-21 09:06 | 48.23423 | 15.97467 | 11720 ft | 375 kts | 122° |
| 2026-04-21 09:06 | 48.21985 | 16.00706 | 11119 ft | 371 kts | 122° |
| 2026-04-21 09:07 | 48.20573 | 16.03880 | 10879 ft | 358 kts | 121° |
| 2026-04-21 09:07 | 48.19225 | 16.06906 | 10742 ft | 336 kts | 121° |
| 2026-04-21 09:07 | 48.17975 | 16.09703 | 10607 ft | 310 kts | 122° |
| 2026-04-21 09:07 | 48.16806 | 16.12322 | 10237 ft | 297 kts | 121° |
| 2026-04-21 09:08 | 48.15677 | 16.14859 | 9989 ft | 292 kts | 121° |
| 2026-04-21 09:08 | 48.14547 | 16.17401 | 9856 ft | 294 kts | 121° |
| 2026-04-21 09:08 | 48.13410 | 16.19957 | 9716 ft | 296 kts | 121° |
| 2026-04-21 09:08 | 48.12285 | 16.22478 | 9582 ft | 295 kts | 122° |
| 2026-04-21 09:09 | 48.11139 | 16.25040 | 9086 ft | 297 kts | 122° |
| 2026-04-21 09:09 | 48.09997 | 16.27593 | 8636 ft | 296 kts | 121° |
| 2026-04-21 09:09 | 48.08855 | 16.30140 | 8086 ft | 293 kts | 121° |
| 2026-04-21 09:09 | 48.07728 | 16.32644 | 7503 ft | 289 kts | 121° |
| 2026-04-21 09:10 | 48.06613 | 16.35122 | 6972 ft | 287 kts | 121° |
| 2026-04-21 09:10 | 48.05497 | 16.37604 | 6475 ft | 289 kts | 121° |
| 2026-04-21 09:10 | 48.04374 | 16.40095 | 6002 ft | 289 kts | 121° |
| 2026-04-21 09:10 | 48.03280 | 16.42518 | 5676 ft | 283 kts | 122° |
| 2026-04-21 09:11 | 48.02179 | 16.44960 | 5191 ft | 284 kts | 121° |
| 2026-04-21 09:11 | 48.01081 | 16.47403 | 4683 ft | 281 kts | 121° |
| 2026-04-21 09:11 | 48.00017 | 16.49762 | 4384 ft | 265 kts | 122° |
| 2026-04-21 09:11 | 47.99024 | 16.51952 | 4250 ft | 247 kts | 122° |
| 2026-04-21 09:12 | 47.98081 | 16.54030 | 4128 ft | 236 kts | 121° |
| 2026-04-21 09:12 | 47.97183 | 16.56012 | 4031 ft | 227 kts | 122° |
| 2026-04-21 09:12 | 47.96411 | 16.58038 | 3930 ft | 221 kts | 100° |
| 2026-04-21 09:12 | 47.96391 | 16.60255 | 3841 ft | 212 kts | 68° |
| 2026-04-21 09:13 | 47.97105 | 16.62045 | 3722 ft | 201 kts | 39° |
| 2026-04-21 09:13 | 47.98297 | 16.63075 | 3235 ft | 199 kts | 9° |
| 2026-04-21 09:13 | 47.99636 | 16.63031 | 2862 ft | 190 kts | 344° |
| 2026-04-21 09:13 | 48.00898 | 16.62503 | 2438 ft | 188 kts | 343° |
| 2026-04-21 09:14 | 48.02147 | 16.61970 | 2112 ft | 183 kts | 342° |
| 2026-04-21 09:14 | 48.03324 | 16.61472 | 1821 ft | 169 kts | 342° |
| 2026-04-21 09:14 | 48.04414 | 16.61013 | 1558 ft | 157 kts | 343° |
| 2026-04-21 09:14 | 48.05428 | 16.60585 | 1328 ft | 145 kts | 342° |
| 2026-04-21 09:15 | 48.06352 | 16.60195 | 1140 ft | 137 kts | 343° |
| 2026-04-21 09:15 | 48.07219 | 16.59830 | 1041 ft | 134 kts | 342° |
| 2026-04-21 09:15 | 48.07968 | 16.59517 | 923 ft | 131 kts | 343° |
| 2026-04-21 09:15 | 48.08847 | 16.59142 | 660 ft | 130 kts | 342° |
| 2026-04-21 09:16 | 48.09662 | 16.58798 | 614 ft | 105 kts | 345° |
| 2026-04-21 09:16 | 48.10198 | 16.58571 | 618 ft | 55 kts | 345° |
| 2026-04-21 09:16 | 48.10497 | 16.58443 | 613 ft | 40 kts | 345° |
| 2026-04-21 09:16 | 48.10737 | 16.58341 | 619 ft | 33 kts | 343° |
| 2026-04-21 09:17 | 48.10938 | 16.58244 | 612 ft | 28 kts | 330° |
| 2026-04-21 09:17 | 48.11052 | 16.58043 | 612 ft | 25 kts | 295° |
| 2026-04-21 09:17 | 48.11127 | 16.57808 | 616 ft | 25 kts | 295° |
| 2026-04-21 09:17 | 48.11204 | 16.57574 | 613 ft | 25 kts | 295° |
| 2026-04-21 09:18 | 48.11281 | 16.57337 | 615 ft | 26 kts | 297° |
| 2026-04-21 09:18 | 48.11359 | 16.57100 | 621 ft | 25 kts | 296° |
| 2026-04-21 09:18 | 48.11434 | 16.56863 | 620 ft | 25 kts | 295° |
| 2026-04-21 09:18 | 48.11512 | 16.56627 | 613 ft | 25 kts | 296° |
| 2026-04-21 09:19 | 48.11590 | 16.56391 | 615 ft | 25 kts | 296° |
| 2026-04-21 09:19 | 48.11665 | 16.56159 | 619 ft | 25 kts | 295° |
| 2026-04-21 09:19 | 48.11737 | 16.55939 | 618 ft | 21 kts | 296° |
| 2026-04-21 09:19 | 48.11811 | 16.55838 | 609 ft | 14 kts | 18° |
| 2026-04-21 09:20 | 48.11882 | 16.55893 | 618 ft | 9 kts | 26° |
| 2026-04-21 09:20 | 48.11895 | 16.55941 | 615 ft | 5 kts | 136° |
| 2026-04-21 09:20 | 48.11871 | 16.55959 | 609 ft | 3 kts | 135° |
| 2026-04-21 09:20 | 48.11860 | 16.55981 | 615 ft | 2 kts | 125° |
| 2026-04-21 09:21 | 48.11855 | 16.55993 | 615 ft | 1 kts | 124° |
| 2026-04-21 09:21 | 48.11853 | 16.55997 | 613 ft | 0 kts | 124° |